Time;durP1;ratioP1;P1;durP2;ratioP2;P2;SDS_P1;SDS_P2;PMS_P1;PMS_P2;Temp;Humidity;BMP_temperature;BMP_pressure;BME280_temperature;BME280_humidity;BME280_pressure;Samples;Min_cycle;Max_cycle;Signal;HPM_P1;HPM_P2
2021/01/26 00:00:06;;;;;;;33.43;22.83;;;1.90;99.90;;;;;;5071756;28;20939;-69
2021/01/26 00:02:31;;;;;;;33.40;21.00;;;1.80;99.90;;;;;;5072150;28;20735;-68
2021/01/26 00:04:57;;;;;;;32.40;20.23;;;1.80;99.90;;;;;;5071431;28;20400;-69
2021/01/26 00:07:22;;;;;;;32.27;22.83;;;1.80;99.90;;;;;;5071170;28;20680;-69
2021/01/26 00:09:47;;;;;;;35.97;20.17;;;1.80;99.90;;;;;;5071462;28;20596;-69
2021/01/26 00:12:14;;;;;;;30.27;20.07;;;1.80;99.90;;;;;;5071370;28;20520;-69
2021/01/26 00:14:39;;;;;;;34.20;19.27;;;1.80;99.90;;;;;;5071546;28;20158;-70
2021/01/26 00:17:05;;;;;;;37.23;21.80;;;1.80;99.90;;;;;;5071312;28;20465;-69
2021/01/26 00:19:30;;;;;;;32.53;21.00;;;1.70;99.90;;;;;;5071572;28;20292;-69
2021/01/26 00:21:56;;;;;;;31.60;20.23;;;1.70;99.90;;;;;;5071326;28;20261;-70
2021/01/26 00:24:21;;;;;;;35.57;20.83;;;1.60;99.90;;;;;;5072054;28;20626;-70
2021/01/26 00:26:47;;;;;;;31.40;19.20;;;1.60;99.90;;;;;;5071139;28;20646;-70
2021/01/26 00:29:12;;;;;;;35.10;19.70;;;1.70;99.90;;;;;;5071364;28;20225;-70
2021/01/26 00:31:38;;;;;;;25.77;19.87;;;1.70;99.90;;;;;;5071237;28;20235;-70
2021/01/26 00:34:03;;;;;;;32.30;21.03;;;1.80;99.90;;;;;;5055682;28;20195;-70
2021/01/26 00:36:29;;;;;;;35.13;22.70;;;1.80;99.90;;;;;;5051253;28;20182;-70
2021/01/26 00:38:55;;;;;;;36.13;24.20;;;1.80;99.90;;;;;;5051502;28;20174;-70
2021/01/26 00:41:20;;;;;;;37.33;25.40;;;1.90;99.90;;;;;;5061422;28;20487;-70
2021/01/26 00:43:46;;;;;;;34.37;23.40;;;1.90;99.90;;;;;;5071110;28;20224;-70
2021/01/26 00:46:11;;;;;;;37.03;23.13;;;1.90;99.90;;;;;;5070924;28;20202;-70
2021/01/26 00:48:36;;;;;;;30.63;21.17;;;1.80;99.90;;;;;;5071580;28;20190;-70
2021/01/26 00:51:03;;;;;;;35.30;22.77;;;1.70;99.90;;;;;;5074865;28;20194;-70
2021/01/26 00:53:28;;;;;;;28.37;19.13;;;1.70;99.90;;;;;;5074746;28;20174;-70
2021/01/26 00:55:54;;;;;;;28.07;19.23;;;1.80;99.90;;;;;;5074773;28;20877;-70
2021/01/26 00:58:19;;;;;;;36.37;22.70;;;1.80;99.90;;;;;;5074745;28;20551;-70
2021/01/26 01:00:45;;;;;;;38.77;22.87;;;1.80;99.90;;;;;;5074710;28;20284;-70
2021/01/26 01:03:10;;;;;;;41.97;25.07;;;1.70;99.90;;;;;;5074827;28;20178;-70
2021/01/26 01:05:36;;;;;;;40.67;23.97;;;1.70;99.90;;;;;;5074774;28;20212;-70
2021/01/26 01:08:02;;;;;;;34.73;22.60;;;1.80;99.90;;;;;;5073345;28;20630;-70
2021/01/26 01:10:30;;;;;;;34.23;23.73;;;1.70;99.90;;;;;;5074410;28;20190;-70
2021/01/26 01:12:55;;;;;;;33.10;23.10;;;1.70;99.90;;;;;;5074720;28;20409;-70
2021/01/26 01:15:22;;;;;;;37.97;24.27;;;1.70;99.90;;;;;;5073004;28;20759;-70
2021/01/26 01:17:48;;;;;;;39.93;26.83;;;1.70;99.90;;;;;;5074125;28;20250;-70
2021/01/26 01:20:16;;;;;;;37.43;23.27;;;1.70;99.90;;;;;;5074209;28;20416;-70
2021/01/26 01:22:42;;;;;;;36.73;22.40;;;1.70;99.90;;;;;;5074689;28;20408;-70
2021/01/26 01:25:07;;;;;;;39.40;23.83;;;1.70;99.90;;;;;;5074108;28;20431;-70
2021/01/26 01:27:33;;;;;;;37.43;24.83;;;1.70;99.90;;;;;;5073814;28;20182;-71
2021/01/26 01:29:59;;;;;;;32.90;21.13;;;1.80;99.90;;;;;;5074252;28;20404;-71
2021/01/26 01:32:24;;;;;;;35.60;23.83;;;1.80;99.90;;;;;;5072094;28;20900;-72
2021/01/26 01:34:50;;;;;;;39.60;21.93;;;1.80;99.90;;;;;;5054298;28;20171;-72
2021/01/26 01:37:15;;;;;;;35.93;23.87;;;1.80;99.90;;;;;;5054372;28;20159;-72
2021/01/26 01:39:41;;;;;;;33.30;23.50;;;1.80;99.90;;;;;;5054218;28;20182;-72
2021/01/26 01:42:10;;;;;;;33.77;23.07;;;1.80;99.90;;;;;;5070053;28;20659;-72
2021/01/26 01:44:36;;;;;;;34.93;23.80;;;1.80;99.90;;;;;;5073901;28;20177;-72
2021/01/26 01:47:04;;;;;;;34.73;21.50;;;1.80;99.90;;;;;;5073892;28;20483;-73
2021/01/26 01:49:36;;;;;;;36.23;22.30;;;1.90;99.90;;;;;;5073861;28;20413;-70
2021/01/26 01:52:03;;;;;;;35.13;21.60;;;1.90;99.90;;;;;;5073742;28;20460;-69
2021/01/26 01:54:35;;;;;;;30.53;21.00;;;1.80;99.90;;;;;;5073354;28;20881;-70
2021/01/26 01:57:12;;;;;;;34.10;20.60;;;1.70;99.90;;;;;;5073496;28;20963;-70
2021/01/26 01:59:44;;;;;;;43.83;24.47;;;1.70;99.90;;;;;;5073245;28;20835;-71
2021/01/26 02:02:12;;;;;;;35.20;23.13;;;1.70;99.90;;;;;;5064733;28;20912;-71
2021/01/26 02:04:37;;;;;;;30.00;21.03;;;1.60;99.90;;;;;;5055199;28;20423;-71
2021/01/26 02:07:05;;;;;;;35.47;21.43;;;1.60;99.90;;;;;;5073290;28;20460;-71
2021/01/26 02:09:33;;;;;;;40.37;24.70;;;1.60;99.90;;;;;;5073759;28;20429;-71
2021/01/26 02:11:59;;;;;;;34.23;22.83;;;1.60;99.90;;;;;;5073381;28;20420;-71
2021/01/26 02:14:28;;;;;;;30.53;21.17;;;1.60;99.90;;;;;;5073400;28;20404;-71
2021/01/26 02:17:27;;;;;;;37.20;22.20;;;1.60;99.90;;;;;;5073164;28;20163;-71
2021/01/26 02:20:29;;;;;;;32.77;21.90;;;1.60;99.90;;;;;;5073721;28;20423;-71
2021/01/26 02:23:30;;;;;;;30.50;21.17;;;1.60;99.90;;;;;;5073263;28;20445;-69
2021/01/26 02:26:04;;;;;;;32.77;21.37;;;1.50;99.90;;;;;;5073468;28;20769;-72
2021/01/26 02:28:54;;;;;;;31.33;21.40;;;1.50;99.90;;;;;;5073059;28;20404;-72
2021/01/26 02:31:41;;;;;;;36.03;23.47;;;1.50;99.90;;;;;;5072934;28;20447;-72
2021/01/26 02:34:25;;;;;;;35.67;22.30;;;1.40;99.90;;;;;;5065057;28;20407;-72
2021/01/26 02:37:15;;;;;;;32.90;20.93;;;1.40;99.90;;;;;;5073126;28;20461;-72
2021/01/26 02:39:58;;;;;;;34.40;22.03;;;1.40;99.90;;;;;;5073043;28;20401;-71
2021/01/26 02:42:43;;;;;;;33.60;22.57;;;1.40;99.90;;;;;;5072864;28;20924;-71
2021/01/26 02:45:11;;;;;;;40.23;22.90;;;1.40;99.90;;;;;;5072702;28;20408;-71
2021/01/26 02:47:37;;;;;;;29.00;20.50;;;1.30;99.90;;;;;;5072512;28;20478;-71
2021/01/26 02:50:27;;;;;;;32.00;21.07;;;1.30;99.90;;;;;;5072659;28;20409;-72
2021/01/26 02:53:19;;;;;;;32.67;20.70;;;1.30;99.90;;;;;;5073020;28;20634;-71
2021/01/26 02:56:09;;;;;;;34.77;21.73;;;1.30;99.90;;;;;;5072589;28;20415;-72
2021/01/26 02:58:57;;;;;;;35.00;20.60;;;1.30;99.90;;;;;;5072329;28;20404;-71
2021/01/26 03:01:27;;;;;;;33.30;21.33;;;1.20;99.90;;;;;;5072696;28;20554;-72
2021/01/26 03:04:02;;;;;;;36.40;23.57;;;1.10;99.90;;;;;;5072894;28;20901;-71
2021/01/26 03:06:30;;;;;;;29.63;20.30;;;1.10;99.90;;;;;;5072562;28;20576;-71
2021/01/26 03:09:03;;;;;;;36.90;23.50;;;1.10;99.90;;;;;;5072667;28;20909;-71
2021/01/26 03:11:48;;;;;;;31.17;19.40;;;1.10;99.90;;;;;;5071889;28;20440;-71
2021/01/26 03:14:25;;;;;;;29.37;20.43;;;1.10;99.90;;;;;;5072516;28;20892;-72
2021/01/26 03:16:59;;;;;;;30.57;19.47;;;1.10;99.90;;;;;;5072417;28;20770;-72
2021/01/26 03:19:30;;;;;;;31.37;19.63;;;1.10;99.90;;;;;;5072468;28;20405;-70
2021/01/26 03:21:59;;;;;;;35.03;20.07;;;1.00;99.90;;;;;;5072425;28;20512;-72
2021/01/26 03:24:31;;;;;;;32.87;20.03;;;1.00;99.90;;;;;;5072680;28;20890;-70
2021/01/26 03:26:58;;;;;;;35.90;21.73;;;1.00;99.90;;;;;;5072166;28;21022;-70
2021/01/26 03:29:30;;;;;;;39.17;22.40;;;1.10;99.90;;;;;;5072263;28;20405;-70
2021/01/26 03:31:58;;;;;;;33.07;20.53;;;1.00;99.90;;;;;;5071883;28;20913;-70
2021/01/26 03:34:24;;;;;;;28.70;19.17;;;1.00;99.90;;;;;;5072099;28;20396;-71
2021/01/26 03:36:49;;;;;;;30.00;20.00;;;1.00;99.90;;;;;;5071841;28;20503;-71
2021/01/26 03:39:16;;;;;;;29.77;20.10;;;1.00;99.90;;;;;;5072054;28;20197;-70
2021/01/26 03:41:41;;;;;;;30.40;19.27;;;1.00;99.90;;;;;;5071823;28;20190;-70
2021/01/26 03:44:10;;;;;;;30.90;20.80;;;0.90;99.90;;;;;;5071764;28;20458;-70
2021/01/26 03:46:48;;;;;;;28.30;19.60;;;0.90;99.90;;;;;;5071466;28;20197;-70
2021/01/26 03:49:55;;;;;;;27.87;18.90;;;0.80;99.90;;;;;;5072248;28;20403;-70
2021/01/26 03:52:39;;;;;;;26.30;18.50;;;0.80;99.90;;;;;;5061206;28;20433;-70
2021/01/26 03:55:19;;;;;;;26.37;20.10;;;0.70;99.90;;;;;;5071885;28;20400;-70
2021/01/26 03:58:18;;;;;;;29.80;18.07;;;0.60;99.90;;;;;;5071575;28;20411;-71
2021/01/26 04:00:57;;;;;;;26.23;17.40;;;0.50;99.90;;;;;;5070341;28;20436;-70
2021/01/26 04:03:46;;;;;;;31.97;18.90;;;0.40;99.90;;;;;;5071723;28;20803;-70
2021/01/26 04:06:29;;;;;;;27.10;18.30;;;0.40;99.90;;;;;;5071680;28;20425;-70
2021/01/26 04:08:59;;;;;;;28.73;20.07;;;0.30;99.90;;;;;;5071600;28;20415;-71
2021/01/26 04:11:41;;;;;;;26.97;18.17;;;0.40;99.90;;;;;;5071253;28;20460;-71
2021/01/26 04:14:15;;;;;;;33.87;21.80;;;0.40;99.90;;;;;;5072484;28;20402;-71
2021/01/26 04:16:50;;;;;;;26.77;17.20;;;0.40;99.90;;;;;;5071458;28;20444;-71
2021/01/26 04:19:25;;;;;;;31.07;19.43;;;0.30;99.90;;;;;;5071682;28;20413;-70
2021/01/26 04:21:50;;;;;;;31.57;20.83;;;0.30;99.90;;;;;;5071558;28;20544;-70
2021/01/26 04:24:17;;;;;;;33.70;20.40;;;0.20;99.90;;;;;;5074959;28;20408;-71
2021/01/26 04:26:45;;;;;;;29.30;20.13;;;0.10;99.90;;;;;;5075505;28;20197;-71
2021/01/26 04:29:10;;;;;;;36.73;19.07;;;0.20;99.90;;;;;;5075514;28;20407;-71
2021/01/26 04:31:36;;;;;;;36.70;21.20;;;0.20;99.90;;;;;;5075271;28;20512;-71
2021/01/26 04:34:01;;;;;;;33.07;20.93;;;0.20;99.90;;;;;;5075457;28;20575;-71
2021/01/26 04:36:28;;;;;;;35.73;20.57;;;0.10;99.90;;;;;;5075105;28;20167;-71
2021/01/26 04:38:53;;;;;;;29.70;20.90;;;0.20;99.90;;;;;;5075244;28;20257;-71
2021/01/26 04:41:41;;;;;;;30.13;20.57;;;0.20;99.90;;;;;;5075061;28;20511;-71
2021/01/26 04:44:20;;;;;;;31.50;21.77;;;0.20;99.90;;;;;;5075089;28;20178;-71
2021/01/26 04:46:53;;;;;;;35.53;20.40;;;0.10;99.90;;;;;;5074817;28;20440;-71
2021/01/26 04:49:58;;;;;;;34.37;18.73;;;0.00;99.90;;;;;;5075011;28;20397;-71
2021/01/26 04:52:32;;;;;;;33.30;21.77;;;0.00;99.90;;;;;;5074854;28;20426;-71
2021/01/26 04:55:13;;;;;;;29.30;20.90;;;0.00;99.90;;;;;;5074936;28;20407;-71
2021/01/26 04:57:56;;;;;;;38.27;21.23;;;-0.10;99.90;;;;;;5074803;28;20813;-71
2021/01/26 05:00:52;;;;;;;34.20;20.63;;;-0.10;99.90;;;;;;5075076;28;20428;-71
2021/01/26 05:03:57;;;;;;;32.73;22.50;;;-0.10;99.90;;;;;;5074736;28;20399;-71
2021/01/26 05:06:30;;;;;;;36.23;22.80;;;-0.20;99.90;;;;;;5074397;28;20414;-71
2021/01/26 05:08:58;;;;;;;36.93;21.37;;;-0.10;99.90;;;;;;5074588;28;20481;-71
2021/01/26 05:11:29;;;;;;;33.33;21.93;;;-0.10;99.90;;;;;;5074345;28;20493;-71
2021/01/26 05:14:02;;;;;;;29.20;18.37;;;-0.10;99.90;;;;;;5074434;28;20751;-71
2021/01/26 05:16:30;;;;;;;32.60;20.37;;;-0.10;99.90;;;;;;5074754;28;20411;-71
2021/01/26 05:19:06;;;;;;;33.97;21.30;;;-0.10;99.90;;;;;;5074791;28;20404;-71
2021/01/26 05:22:06;;;;;;;39.67;20.53;;;-0.20;99.90;;;;;;5074585;28;20420;-72
2021/01/26 05:24:59;;;;;;;32.47;19.97;;;-0.20;99.90;;;;;;5073160;28;20425;-71
2021/01/26 05:27:25;;;;;;;31.50;21.00;;;-0.20;99.90;;;;;;5074131;28;20496;-71
2021/01/26 05:29:50;;;;;;;33.07;23.00;;;-0.30;99.90;;;;;;5074195;28;20443;-71
2021/01/26 05:32:16;;;;;;;27.17;18.77;;;-0.30;99.90;;;;;;5074356;28;20187;-71
2021/01/26 05:34:42;;;;;;;33.50;20.37;;;-0.30;99.90;;;;;;5073567;28;20257;-71
2021/01/26 05:37:10;;;;;;;32.07;18.30;;;-0.40;99.90;;;;;;5074109;28;20554;-71
2021/01/26 05:39:56;;;;;;;28.97;20.10;;;-0.30;99.90;;;;;;5073902;28;20627;-71
2021/01/26 05:42:24;;;;;;;27.30;17.30;;;-0.20;99.90;;;;;;5074169;28;20427;-71
2021/01/26 05:44:56;;;;;;;27.20;18.77;;;-0.30;99.90;;;;;;5074264;28;20503;-71
2021/01/26 05:47:33;;;;;;;33.37;22.03;;;-0.20;99.90;;;;;;5073681;28;20452;-71
2021/01/26 05:50:03;;;;;;;29.23;21.20;;;-0.30;99.90;;;;;;5072698;28;20473;-71
2021/01/26 05:52:38;;;;;;;27.73;20.27;;;-0.40;99.90;;;;;;5073798;28;20492;-71
2021/01/26 05:55:17;;;;;;;27.70;18.57;;;-0.50;99.90;;;;;;5073704;28;20408;-71
2021/01/26 05:57:44;;;;;;;28.20;17.70;;;-0.50;99.90;;;;;;5073644;28;20465;-71
2021/01/26 06:00:25;;;;;;;31.37;17.87;;;-0.50;99.90;;;;;;5073678;28;20412;-71
2021/01/26 06:03:16;;;;;;;25.60;17.03;;;-0.50;99.90;;;;;;5073911;28;20503;-71
2021/01/26 06:05:42;;;;;;;29.03;16.93;;;-0.40;99.90;;;;;;5073621;28;21001;-71
2021/01/26 06:08:10;;;;;;;29.03;18.70;;;-0.40;99.90;;;;;;5073443;28;20444;-71
2021/01/26 06:10:39;;;;;;;24.97;17.57;;;-0.40;99.90;;;;;;5073905;28;20519;-71
2021/01/26 06:13:05;;;;;;;31.20;17.87;;;-0.50;99.90;;;;;;5073700;28;20779;-72
2021/01/26 06:15:34;;;;;;;30.77;17.33;;;-0.60;99.90;;;;;;5073618;28;20455;-71
2021/01/26 06:18:20;;;;;;;29.80;17.50;;;-0.60;99.90;;;;;;5073602;28;20916;-71
2021/01/26 06:21:06;;;;;;;28.97;20.07;;;-0.50;99.90;;;;;;5073421;28;20790;-71
2021/01/26 06:23:32;;;;;;;27.47;16.93;;;-0.50;99.90;;;;;;5073371;28;20407;-71
2021/01/26 06:26:03;;;;;;;28.53;17.33;;;-0.60;99.90;;;;;;5073336;28;20401;-71
2021/01/26 06:28:35;;;;;;;30.60;18.17;;;-0.60;99.90;;;;;;5073069;28;20865;-71
2021/01/26 06:31:08;;;;;;;30.50;17.93;;;-0.60;99.90;;;;;;5073045;28;20423;-71
2021/01/26 06:33:52;;;;;;;37.23;20.37;;;-0.50;99.90;;;;;;5073007;28;20404;-71
2021/01/26 06:36:34;;;;;;;27.60;19.20;;;-0.30;99.90;;;;;;5073347;28;20759;-71
2021/01/26 06:39:17;;;;;;;31.53;17.50;;;-0.30;99.90;;;;;;5073051;28;20919;-71
2021/01/26 06:42:07;;;;;;;28.80;17.63;;;-0.20;99.90;;;;;;5072832;28;20511;-71
2021/01/26 06:44:40;;;;;;;27.97;18.10;;;-0.20;99.90;;;;;;5072839;28;20423;-71
2021/01/26 06:47:27;;;;;;;25.10;18.90;;;-0.20;99.90;;;;;;5071736;28;20987;-71
2021/01/26 06:50:11;;;;;;;27.90;18.40;;;-0.10;99.90;;;;;;5072893;28;20466;-71
2021/01/26 06:52:47;;;;;;;33.43;20.47;;;-0.10;99.90;;;;;;5072581;28;20474;-71
2021/01/26 06:55:33;;;;;;;32.77;20.00;;;0.30;99.90;;;;;;5072566;28;20407;-71
2021/01/26 06:58:40;;;;;;;33.50;21.50;;;0.30;99.90;;;;;;5071069;28;20545;-71
2021/01/26 07:01:17;;;;;;;48.73;25.37;;;0.10;99.90;;;;;;5072732;28;20428;-71
2021/01/26 07:04:12;;;;;;;41.57;24.20;;;0.00;99.90;;;;;;5073062;28;20895;-72
2021/01/26 07:06:56;;;;;;;41.27;23.00;;;-0.10;99.90;;;;;;5072116;28;20505;-72
2021/01/26 07:09:37;;;;;;;46.17;25.63;;;-0.10;99.90;;;;;;5072284;28;20495;-71
2021/01/26 07:12:44;;;;;;;46.50;25.07;;;-0.10;99.90;;;;;;5072053;28;20919;-72
2021/01/26 07:15:09;;;;;;;40.17;24.70;;;-0.20;99.90;;;;;;5072025;28;20396;-72
2021/01/26 07:18:10;;;;;;;31.73;21.47;;;-0.20;99.90;;;;;;5071959;28;20470;-71
2021/01/26 07:20:43;;;;;;;28.80;17.03;;;-0.10;99.90;;;;;;5071893;28;20186;-71
2021/01/26 07:23:21;;;;;;;24.80;18.50;;;-0.10;99.90;;;;;;5071641;28;20424;-71
2021/01/26 07:26:25;;;;;;;30.20;19.37;;;0.00;99.90;;;;;;5071719;28;20447;-72
2021/01/26 07:29:19;;;;;;;21.20;15.40;;;-0.10;99.90;;;;;;5071973;28;20826;-71
2021/01/26 07:31:49;;;;;;;32.40;17.17;;;0.00;99.90;;;;;;5072099;28;20420;-72
2021/01/26 07:34:36;;;;;;;23.13;15.73;;;0.00;99.90;;;;;;5071929;28;20400;-71
2021/01/26 07:37:10;;;;;;;24.30;15.97;;;0.00;99.90;;;;;;5071933;28;20408;-71
2021/01/26 07:39:43;;;;;;;26.97;18.17;;;0.10;99.90;;;;;;5071851;28;20406;-71
2021/01/26 07:42:32;;;;;;;24.23;16.77;;;0.10;99.90;;;;;;5071648;28;20413;-71
2021/01/26 07:45:05;;;;;;;32.40;19.73;;;0.20;99.90;;;;;;5071985;28;20802;-71
2021/01/26 07:47:36;;;;;;;23.50;16.33;;;0.90;99.90;;;;;;5071453;28;20460;-71
2021/01/26 07:50:10;;;;;;;26.60;20.23;;;0.90;99.90;;;;;;5071751;28;20881;-70
2021/01/26 07:52:39;;;;;;;27.40;20.20;;;0.50;99.90;;;;;;5071663;28;20412;-72
2021/01/26 07:55:26;;;;;;;27.13;18.43;;;0.40;99.90;;;;;;5071480;28;20451;-70
2021/01/26 07:58:21;;;;;;;31.13;18.90;;;0.50;99.90;;;;;;5071079;28;20507;-70
2021/01/26 08:00:55;;;;;;;25.83;18.20;;;0.40;99.90;;;;;;5071106;28;20863;-70
2021/01/26 08:03:22;;;;;;;28.43;18.90;;;0.40;99.90;;;;;;5071560;28;20400;-70
2021/01/26 08:05:59;;;;;;;29.07;19.33;;;0.50;99.90;;;;;;5069938;28;20428;-71
2021/01/26 08:08:30;;;;;;;22.30;17.93;;;0.50;99.90;;;;;;5071298;28;20480;-71
2021/01/26 08:11:21;;;;;;;21.33;16.23;;;0.40;99.90;;;;;;5071261;28;20416;-72
2021/01/26 08:14:05;;;;;;;23.07;16.73;;;0.40;99.90;;;;;;5071653;28;20458;-72
2021/01/26 08:16:44;;;;;;;35.70;22.17;;;0.40;99.90;;;;;;5071391;28;20413;-71
2021/01/26 08:19:35;;;;;;;26.63;18.40;;;0.50;99.90;;;;;;5071563;28;20408;-70
2021/01/26 08:22:18;;;;;;;25.30;17.13;;;0.50;99.90;;;;;;5071285;28;20782;-70
2021/01/26 08:24:45;;;;;;;24.03;17.60;;;0.50;99.90;;;;;;5071381;28;20407;-71
2021/01/26 08:27:29;;;;;;;28.10;18.80;;;0.50;99.90;;;;;;5071251;28;20455;-71
2021/01/26 08:30:00;;;;;;;27.43;19.33;;;0.80;99.90;;;;;;5071157;28;20404;-71
2021/01/26 08:32:26;;;;;;;26.43;18.50;;;1.00;99.90;;;;;;5071282;28;20461;-71
2021/01/26 08:35:01;;;;;;;24.77;17.70;;;1.30;99.90;;;;;;5071321;28;20404;-70
2021/01/26 08:37:42;;;;;;;28.20;17.10;;;1.60;99.90;;;;;;5070891;28;20173;-71
2021/01/26 08:40:15;;;;;;;23.90;17.67;;;2.10;99.90;;;;;;5070977;28;20451;-71
2021/01/26 08:42:40;;;;;;;23.00;16.50;;;1.80;99.90;;;;;;5071450;28;20474;-71
2021/01/26 08:45:09;;;;;;;23.37;14.40;;;1.40;99.90;;;;;;5071372;28;20837;-71
2021/01/26 08:47:49;;;;;;;21.77;15.30;;;1.30;99.90;;;;;;5071154;28;20198;-71
2021/01/26 08:50:22;;;;;;;24.40;15.90;;;1.60;99.90;;;;;;5071036;28;20450;-71
2021/01/26 08:52:48;;;;;;;25.03;17.17;;;1.60;99.90;;;;;;5068887;28;20416;-71
2021/01/26 08:55:43;;;;;;;26.20;17.53;;;1.60;99.90;;;;;;5070691;28;20450;-71
2021/01/26 08:58:33;;;;;;;26.43;17.90;;;2.10;99.90;;;;;;5070967;28;20243;-71
2021/01/26 09:00:59;;;;;;;22.67;16.07;;;1.80;99.90;;;;;;5070771;28;20813;-71
2021/01/26 09:03:33;;;;;;;21.33;16.50;;;1.70;99.90;;;;;;5071068;28;20567;-71
2021/01/26 09:06:02;;;;;;;21.40;16.60;;;1.90;99.90;;;;;;5070928;28;20181;-71
2021/01/26 09:08:40;;;;;;;23.90;16.50;;;1.90;99.90;;;;;;5071025;28;20452;-71
2021/01/26 09:11:14;;;;;;;25.00;17.60;;;2.30;99.90;;;;;;5073686;28;20550;-71
2021/01/26 09:13:41;;;;;;;23.27;18.30;;;2.30;99.90;;;;;;5074453;28;20400;-71
2021/01/26 09:16:28;;;;;;;20.80;15.70;;;2.60;99.90;;;;;;5074934;28;20423;-71
2021/01/26 09:19:04;;;;;;;23.43;15.90;;;3.10;99.90;;;;;;5074748;28;20404;-72
2021/01/26 09:21:32;;;;;;;22.33;16.03;;;3.10;99.90;;;;;;5074480;28;20455;-71
2021/01/26 09:23:59;;;;;;;18.20;15.00;;;2.80;99.90;;;;;;5074137;28;20407;-71
2021/01/26 09:26:27;;;;;;;21.63;15.00;;;2.30;99.90;;;;;;5074044;28;20519;-71
2021/01/26 09:28:53;;;;;;;20.40;15.83;;;2.40;99.90;;;;;;5074547;28;20923;-71
2021/01/26 09:31:22;;;;;;;20.00;16.17;;;2.50;99.90;;;;;;5074490;28;20432;-71
2021/01/26 09:33:48;;;;;;;21.23;16.37;;;2.30;99.90;;;;;;5074518;28;20178;-71
2021/01/26 09:36:19;;;;;;;22.27;16.23;;;2.40;99.90;;;;;;5074123;28;20911;-71
2021/01/26 09:38:48;;;;;;;19.90;15.90;;;2.20;99.90;;;;;;5074215;28;20202;-71
2021/01/26 09:41:16;;;;;;;20.23;13.20;;;2.10;99.90;;;;;;5074000;28;20424;-71
2021/01/26 09:43:44;;;;;;;23.37;14.60;;;2.60;99.90;;;;;;5074058;28;20413;-71
2021/01/26 09:46:28;;;;;;;17.10;13.50;;;2.70;99.90;;;;;;5074015;28;20401;-71
2021/01/26 09:48:57;;;;;;;19.57;14.60;;;2.90;99.90;;;;;;5073831;28;20401;-70
2021/01/26 09:51:25;;;;;;;19.10;13.70;;;2.70;99.90;;;;;;5074232;28;20413;-70
2021/01/26 09:54:05;;;;;;;18.27;14.37;;;2.70;99.90;;;;;;5074275;28;20404;-72
2021/01/26 09:56:33;;;;;;;19.97;14.33;;;2.30;99.90;;;;;;5074118;28;20769;-73
2021/01/26 09:58:59;;;;;;;20.90;14.60;;;2.10;99.90;;;;;;5074197;28;20403;-71
2021/01/26 10:01:25;;;;;;;21.53;14.67;;;2.30;99.90;;;;;;5073660;28;20420;-72
2021/01/26 10:03:59;;;;;;;19.27;14.07;;;2.30;99.90;;;;;;5073789;28;20401;-71
2021/01/26 10:06:26;;;;;;;21.67;14.70;;;2.30;99.90;;;;;;5073828;28;20439;-72
2021/01/26 10:08:52;;;;;;;21.33;14.93;;;2.30;99.90;;;;;;5074374;28;20529;-71
2021/01/26 10:11:28;;;;;;;21.27;12.70;;;2.10;99.90;;;;;;5074069;28;20868;-72
2021/01/26 10:14:24;;;;;;;20.03;14.60;;;2.30;99.90;;;;;;5073924;28;20411;-72
2021/01/26 10:16:58;;;;;;;22.50;15.67;;;2.40;99.90;;;;;;5073683;28;20495;-71
2021/01/26 10:19:30;;;;;;;21.10;15.97;;;2.50;99.90;;;;;;5073443;28;20934;-72
2021/01/26 10:22:04;;;;;;;26.90;15.97;;;2.60;99.90;;;;;;5073272;28;20783;-72
2021/01/26 10:24:33;;;;;;;23.70;16.90;;;2.60;99.90;;;;;;5053513;28;20436;-72
2021/01/26 10:27:22;;;;;;;22.80;16.33;;;2.80;99.90;;;;;;5053429;28;20869;-71
2021/01/26 10:29:48;;;;;;;22.10;16.77;;;2.80;99.90;;;;;;5055370;28;20487;-71
2021/01/26 10:32:41;;;;;;;23.57;16.57;;;3.00;99.90;;;;;;5053725;28;20929;-71
2021/01/26 10:35:32;;;;;;;26.10;18.03;;;2.80;99.90;;;;;;5053686;28;20409;-72
2021/01/26 10:38:18;;;;;;;22.50;17.30;;;2.90;99.90;;;;;;5053324;28;20413;-70
2021/01/26 10:40:43;;;;;;;22.00;17.90;;;3.00;99.90;;;;;;5053007;28;20922;-70
2021/01/26 10:43:18;;;;;;;22.60;16.17;;;3.20;99.90;;;;;;5051709;28;20420;-70
2021/01/26 10:45:48;;;;;;;22.17;15.43;;;3.10;99.90;;;;;;5053453;28;20198;-70
2021/01/26 10:48:24;;;;;;;20.50;16.43;;;3.10;99.90;;;;;;5052620;28;20544;-70
2021/01/26 10:50:55;;;;;;;23.63;19.17;;;3.10;99.90;;;;;;5052687;28;20536;-70
2021/01/26 10:53:33;;;;;;;23.73;17.40;;;3.40;99.90;;;;;;5062123;28;20486;-70
2021/01/26 10:55:59;;;;;;;24.00;15.50;;;3.00;99.90;;;;;;5073105;28;20493;-70
2021/01/26 10:58:24;;;;;;;25.33;16.80;;;2.90;99.90;;;;;;5072976;28;20937;-72
2021/01/26 11:00:51;;;;;;;23.63;17.30;;;2.90;99.90;;;;;;5072545;28;20276;-70
2021/01/26 11:03:17;;;;;;;21.10;16.43;;;3.00;99.90;;;;;;5072493;28;20661;-70
2021/01/26 11:05:42;;;;;;;27.07;18.87;;;2.80;99.90;;;;;;5072579;28;20420;-73
2021/01/26 11:08:08;;;;;;;22.23;15.73;;;2.70;99.90;;;;;;5072366;28;20190;-70
2021/01/26 11:10:35;;;;;;;27.07;17.77;;;2.70;99.90;;;;;;5072405;28;20281;-70
2021/01/26 11:13:00;;;;;;;33.67;23.53;;;2.90;99.90;;;;;;5072439;28;20166;-70
2021/01/26 11:15:27;;;;;;;27.60;20.33;;;2.80;99.90;;;;;;5072692;28;20420;-70
2021/01/26 11:17:53;;;;;;;34.00;23.00;;;2.90;99.90;;;;;;5072363;28;20699;-70
2021/01/26 11:20:19;;;;;;;44.93;27.73;;;2.90;99.90;;;;;;5072378;28;20956;-71
2021/01/26 11:22:44;;;;;;;40.03;27.40;;;3.00;99.90;;;;;;5072369;28;20440;-70
2021/01/26 11:25:10;;;;;;;35.67;23.97;;;3.00;99.90;;;;;;5072564;28;20177;-70
2021/01/26 11:27:36;;;;;;;27.30;19.80;;;3.10;99.90;;;;;;5072242;28;20540;-71
2021/01/26 11:30:07;;;;;;;28.63;20.70;;;3.20;99.90;;;;;;5072386;28;20762;-70
2021/01/26 11:32:33;;;;;;;24.60;17.23;;;3.30;99.90;;;;;;5070114;28;20423;-70
2021/01/26 11:34:59;;;;;;;27.43;19.03;;;2.90;99.90;;;;;;5072237;28;20396;-70
2021/01/26 11:37:24;;;;;;;24.80;17.93;;;2.90;99.90;;;;;;5072086;28;20788;-73
2021/01/26 11:39:50;;;;;;;24.63;17.13;;;2.90;99.90;;;;;;5072297;28;20185;-70
2021/01/26 11:42:15;;;;;;;27.47;17.80;;;3.00;99.90;;;;;;5072488;28;20182;-70
2021/01/26 11:44:42;;;;;;;29.00;18.60;;;3.10;99.90;;;;;;5072222;28;20173;-70
2021/01/26 11:47:08;;;;;;;27.60;17.50;;;3.10;99.90;;;;;;5071869;28;20190;-70
2021/01/26 11:49:33;;;;;;;23.37;17.30;;;3.10;99.90;;;;;;5071827;28;20407;-71
2021/01/26 11:51:59;;;;;;;24.57;16.73;;;3.10;99.90;;;;;;5071783;28;20197;-71
2021/01/26 11:54:24;;;;;;;26.47;16.80;;;3.10;99.90;;;;;;5071814;28;20174;-71
2021/01/26 11:56:50;;;;;;;21.87;17.27;;;3.20;99.90;;;;;;5072022;28;20704;-71
2021/01/26 11:59:15;;;;;;;29.40;23.03;;;3.30;99.90;;;;;;5071863;28;20162;-70
2021/01/26 12:01:41;;;;;;;22.50;16.83;;;3.40;99.90;;;;;;5071760;28;20724;-71
2021/01/26 12:04:07;;;;;;;21.80;15.87;;;3.40;99.90;;;;;;5072276;28;20198;-71
2021/01/26 12:06:32;;;;;;;20.73;15.37;;;3.70;99.90;;;;;;5072210;28;20783;-70
2021/01/26 12:08:57;;;;;;;23.60;18.47;;;3.60;99.90;;;;;;5072478;28;20166;-72
2021/01/26 12:11:23;;;;;;;22.20;17.00;;;3.60;99.90;;;;;;5070986;28;20201;-71
2021/01/26 12:13:48;;;;;;;24.77;18.37;;;3.40;99.90;;;;;;5072075;28;20170;-71
2021/01/26 12:16:26;;;;;;;;;;;;;;;;;;;;;
2021/01/26 12:18:55;;;;;;;21.90;15.37;;;3.60;99.90;;;;;;5072482;28;20626;-71
2021/01/26 12:21:23;;;;;;;22.50;16.97;;;3.20;99.90;;;;;;5072761;28;20424;-71
2021/01/26 12:23:51;;;;;;;23.30;15.90;;;3.20;99.90;;;;;;5072985;28;20480;-73
2021/01/26 12:26:32;;;;;;;25.97;18.83;;;3.00;99.90;;;;;;5072402;28;20409;-71
2021/01/26 12:29:05;;;;;;;23.47;16.83;;;3.10;99.90;;;;;;5072198;28;20408;-71
2021/01/26 12:31:30;;;;;;;22.40;16.70;;;3.50;99.90;;;;;;5071800;28;20412;-71
2021/01/26 12:33:56;;;;;;;27.07;17.10;;;3.70;99.90;;;;;;5071792;28;20757;-71
2021/01/26 12:36:24;;;;;;;23.00;17.80;;;3.70;99.90;;;;;;5070269;28;20171;-71
2021/01/26 12:39:05;;;;;;;;;;;;;;;;;;;;;
2021/01/26 12:41:43;;;;;;;22.23;16.40;;;3.80;99.90;;;;;;5071821;28;20412;-70
2021/01/26 12:44:26;;;;;;;;;;;;;;;;;;;;;
2021/01/26 12:46:53;;;;;;;20.90;15.83;;;3.90;99.90;;;;;;5075650;28;20448;-69
2021/01/26 12:49:20;;;;;;;19.27;16.50;;;3.70;99.90;;;;;;5075842;28;20412;-70
2021/01/26 12:51:45;;;;;;;23.83;15.20;;;3.50;99.90;;;;;;5075559;28;20435;-70
2021/01/26 12:54:11;;;;;;;25.23;15.23;;;3.40;99.90;;;;;;5075555;28;20778;-69
2021/01/26 12:56:36;;;;;;;18.00;14.70;;;3.40;99.90;;;;;;5074247;28;20398;-70
2021/01/26 12:59:02;;;;;;;22.07;14.87;;;3.30;99.90;;;;;;5075287;28;20174;-70
2021/01/26 13:01:28;;;;;;;21.50;16.77;;;3.10;99.90;;;;;;5075173;28;20225;-70
2021/01/26 13:03:53;;;;;;;22.50;15.43;;;3.10;99.90;;;;;;5073646;28;20519;-70
2021/01/26 13:06:19;;;;;;;21.90;16.00;;;3.10;99.90;;;;;;5074727;28;20725;-71
2021/01/26 13:08:45;;;;;;;20.90;16.40;;;2.90;99.90;;;;;;5074961;28;20225;-71